42FD weather

Palm Beach Community College Heliport
Lake Worth, Florida, United States

Public forecast

Using degrees Fahrenheit for public forecast. Weather courtesy of forecast.io.

Closest aviation weather report (METAR) to Palm Beach Community College Heliport

Closest report is Palm Beach International Airport, 4.4 nm (8.1 km) N. Retrieved 2019/10/23 07:53 UTC (59 minutes ago):

KPBI 230753Z 01004KT 10SM FEW030 SCT050 26/24 A2997 RMK AO2 SLP147 T02560239

Closest aviation forecast (TAF) to Palm Beach Community College Heliport

Closest forecast is Palm Beach International Airport, 4.4 nm (8.1 km) N. Retrieved 2019/10/23 06:27 UTC (2 hours ago):

TAF KPBI 230520Z 2306/2406 VRB03KT P6SM VCSH SCT030 BKN050 FM231600 10008KT P6SM VCSH SCT030 BKN070 FM240200 08006KT P6SM VCSH SCT030 BKN045